Time;durP1;ratioP1;P1;durP2;ratioP2;P2;SDS_P1;SDS_P2;PMS_P1;PMS_P2;Temp;Humidity;BMP_temperature;BMP_pressure;BME280_temperature;BME280_humidity;BME280_pressure;Samples;Min_cycle;Max_cycle;Signal;HPM_P1;HPM_P2
2022/09/30 00:01:38;;;;;;;15.68;11.77;;;15.50;82.30;;;;;;5068095;28;20538;-83
2022/09/30 00:04:05;;;;;;;14.50;11.43;;;15.50;82.30;;;;;;5067850;28;20040;-84
2022/09/30 00:06:34;;;;;;;17.17;12.43;;;15.50;82.20;;;;;;5066139;28;20036;-83
2022/09/30 00:09:01;;;;;;;15.50;11.88;;;15.50;82.20;;;;;;5067414;28;20036;-79
2022/09/30 00:11:32;;;;;;;17.52;11.68;;;15.40;82.20;;;;;;5099865;28;20078;-85
2022/09/30 00:14:00;;;;;;;15.02;11.45;;;15.40;82.20;;;;;;5066706;28;20411;-86
2022/09/30 00:16:30;;;;;;;15.98;11.63;;;15.40;82.30;;;;;;5049878;28;20071;-85
2022/09/30 00:18:57;;;;;;;13.43;10.57;;;15.40;82.40;;;;;;5050928;28;20033;-84
2022/09/30 00:21:24;;;;;;;16.08;11.23;;;15.40;82.40;;;;;;5066810;28;20055;-84
2022/09/30 00:23:50;;;;;;;19.92;11.32;;;15.40;82.40;;;;;;5065667;28;20036;-84
2022/09/30 00:26:19;;;;;;;15.95;11.02;;;15.40;82.60;;;;;;5066395;28;20055;-84
2022/09/30 00:28:49;;;;;;;14.25;10.60;;;15.40;82.60;;;;;;5065631;28;20040;-82
2022/09/30 00:31:16;;;;;;;14.32;10.48;;;15.30;82.40;;;;;;5067640;28;20089;-84
2022/09/30 00:33:43;;;;;;;13.73;10.93;;;15.30;82.40;;;;;;5082197;28;20648;-82
2022/09/30 00:36:09;;;;;;;13.35;10.65;;;15.30;82.70;;;;;;5065875;28;20039;-85
2022/09/30 00:38:35;;;;;;;13.02;10.20;;;15.30;82.60;;;;;;5065959;28;20062;-85
2022/09/30 00:41:02;;;;;;;14.75;10.38;;;15.40;82.60;;;;;;5065778;28;20064;-85
2022/09/30 00:43:52;;;;;;;15.38;10.75;;;15.30;82.60;;;;;;5048801;28;20067;-84
2022/09/30 00:46:33;;;;;;;12.40;9.85;;;15.30;82.60;;;;;;5065641;28;20048;-85
2022/09/30 00:49:04;;;;;;;14.07;10.75;;;15.30;82.60;;;;;;5065072;28;20067;-87
2022/09/30 00:51:37;;;;;;;16.17;10.68;;;15.30;82.60;;;;;;5083259;28;20028;-86
2022/09/30 00:54:08;;;;;;;13.95;10.38;;;15.30;82.80;;;;;;5066670;28;20040;-86
2022/09/30 00:56:40;;;;;;;13.73;10.55;;;15.30;82.80;;;;;;5079702;28;20074;-86
2022/09/30 00:59:12;;;;;;;14.50;10.80;;;15.20;82.70;;;;;;5064205;28;20045;-80
2022/09/30 01:01:40;;;;;;;14.15;10.32;;;15.20;82.70;;;;;;5066135;28;20215;-81
2022/09/30 01:04:15;;;;;;;14.88;10.27;;;15.20;82.70;;;;;;5064871;28;20610;-87
2022/09/30 01:06:42;;;;;;;13.38;10.20;;;15.20;82.70;;;;;;5062235;28;20034;-87
2022/09/30 01:09:08;;;;;;;14.30;10.23;;;15.20;82.70;;;;;;5083276;28;20048;-86
2022/09/30 01:11:34;;;;;;;12.98;10.35;;;15.20;82.70;;;;;;5066225;28;20032;-83
2022/09/30 01:14:22;;;;;;;13.27;9.88;;;15.20;82.70;;;;;;5064818;28;20525;-85
2022/09/30 01:17:16;;;;;;;12.93;9.68;;;15.20;82.70;;;;;;5065025;28;20063;-85
2022/09/30 01:20:24;;;;;;;13.25;10.00;;;15.20;82.80;;;;;;5098809;28;20034;-86
2022/09/30 01:23:08;;;;;;;15.02;10.80;;;15.20;82.80;;;;;;5077867;28;20032;-83
2022/09/30 01:26:04;;;;;;;14.77;10.32;;;15.20;82.90;;;;;;5065983;28;20098;-84
2022/09/30 01:28:38;;;;;;;14.88;10.20;;;15.10;82.80;;;;;;5081369;28;20522;-84
2022/09/30 01:31:36;;;;;;;13.80;10.63;;;15.10;82.80;;;;;;5032288;28;20043;-83
2022/09/30 01:34:05;;;;;;;14.63;10.23;;;15.10;82.90;;;;;;5048908;28;20032;-82
2022/09/30 01:37:01;;;;;;;12.75;10.55;;;15.10;83.00;;;;;;5048115;28;20522;-83
2022/09/30 01:39:55;;;;;;;12.95;10.57;;;15.10;83.00;;;;;;5066097;28;20139;-83
2022/09/30 01:42:35;;;;;;;12.85;9.43;;;15.10;83.00;;;;;;5048365;28;20094;-83
2022/09/30 01:45:07;;;;;;;15.88;10.13;;;15.10;83.00;;;;;;5061685;28;20419;-82
2022/09/30 01:47:54;;;;;;;17.85;11.48;;;15.10;83.00;;;;;;5097815;28;20036;-82
2022/09/30 01:50:32;;;;;;;15.85;11.15;;;15.10;82.90;;;;;;5064551;28;20044;-83
2022/09/30 01:53:11;;;;;;;14.68;11.55;;;15.00;82.80;;;;;;5063765;28;20044;-82
2022/09/30 01:55:51;;;;;;;16.63;10.82;;;15.00;82.80;;;;;;5081363;28;20032;-83
2022/09/30 01:58:38;;;;;;;12.27;9.90;;;15.00;82.80;;;;;;5047182;28;20052;-83
2022/09/30 02:01:10;;;;;;;14.82;11.25;;;15.00;83.00;;;;;;5064397;28;20428;-83
2022/09/30 02:03:50;;;;;;;14.00;11.02;;;15.00;83.00;;;;;;5097946;28;20029;-84
2022/09/30 02:06:24;;;;;;;12.88;10.70;;;15.00;82.90;;;;;;5048335;28;20522;-83
2022/09/30 02:08:59;;;;;;;14.07;10.98;;;15.00;83.00;;;;;;5063811;28;20036;-84
2022/09/30 02:11:28;;;;;;;17.10;10.63;;;15.00;83.00;;;;;;5077631;28;20033;-82
2022/09/30 02:14:28;;;;;;;13.32;10.77;;;15.00;83.10;;;;;;5078198;28;20060;-83
2022/09/30 02:17:06;;;;;;;15.48;10.98;;;15.00;83.10;;;;;;5048074;28;20047;-83
2022/09/30 02:19:35;;;;;;;13.80;11.20;;;15.00;83.00;;;;;;5081073;28;20071;-80
2022/09/30 02:22:10;;;;;;;14.15;11.35;;;15.00;82.80;;;;;;5064849;28;20047;-80
2022/09/30 02:24:37;;;;;;;16.70;12.20;;;14.90;82.80;;;;;;5060174;28;20040;-80
2022/09/30 02:27:12;;;;;;;16.67;11.45;;;15.00;82.90;;;;;;5063740;28;20293;-82
2022/09/30 02:29:44;;;;;;;17.17;12.10;;;14.90;82.80;;;;;;5065783;28;20047;-81
2022/09/30 02:32:38;;;;;;;14.35;11.23;;;14.90;82.90;;;;;;5101776;28;20369;-82
2022/09/30 02:35:16;;;;;;;13.05;10.98;;;14.90;83.00;;;;;;5095141;28;20056;-82
2022/09/30 02:37:49;;;;;;;15.13;10.98;;;14.90;83.00;;;;;;5068757;28;20139;-82
2022/09/30 02:40:48;;;;;;;15.07;10.43;;;14.90;83.10;;;;;;5068874;28;20082;-81
2022/09/30 02:43:17;;;;;;;13.90;9.55;;;14.90;82.90;;;;;;5046986;28;20233;-82
2022/09/30 02:46:15;;;;;;;14.23;10.35;;;14.90;83.00;;;;;;5068837;28;20039;-82
2022/09/30 02:48:47;;;;;;;12.80;9.93;;;14.90;83.60;;;;;;5026168;28;20033;-80
2022/09/30 02:51:21;;;;;;;14.43;10.00;;;14.90;83.00;;;;;;5010263;28;20040;-80
2022/09/30 02:54:01;;;;;;;12.57;9.75;;;14.90;82.90;;;;;;5026412;28;20040;-78
2022/09/30 02:56:58;;;;;;;13.52;9.85;;;14.80;82.80;;;;;;5010055;28;20528;-81
2022/09/30 02:59:25;;;;;;;12.82;10.52;;;14.80;82.90;;;;;;5027293;28;20126;-83
2022/09/30 03:01:51;;;;;;;13.48;10.18;;;14.80;82.80;;;;;;5026707;28;20091;-82
2022/09/30 03:04:24;;;;;;;15.27;11.25;;;14.80;82.90;;;;;;5026707;28;20037;-82
2022/09/30 03:06:50;;;;;;;13.85;11.57;;;14.80;82.90;;;;;;5009533;28;20033;-83
2022/09/30 03:09:16;;;;;;;18.38;12.60;;;14.80;82.80;;;;;;5027378;28;20033;-82
2022/09/30 03:11:42;;;;;;;17.02;12.38;;;14.80;82.80;;;;;;5010466;28;20029;-83
2022/09/30 03:14:24;;;;;;;14.38;11.00;;;14.80;83.00;;;;;;5025941;28;20437;-83
2022/09/30 03:16:58;;;;;;;16.10;11.23;;;14.80;82.90;;;;;;5026178;28;20044;-79
2022/09/30 03:19:24;;;;;;;15.85;11.65;;;14.80;82.80;;;;;;5026206;28;20120;-79
2022/09/30 03:21:52;;;;;;;16.17;11.68;;;14.80;82.80;;;;;;5026062;28;20121;-80
2022/09/30 03:24:52;;;;;;;15.65;11.10;;;14.80;82.90;;;;;;5028194;28;20524;-79
2022/09/30 03:27:36;;;;;;;15.25;11.80;;;14.80;83.10;;;;;;5091970;28;20052;-80
2022/09/30 03:30:10;;;;;;;13.70;10.77;;;14.80;83.00;;;;;;5050604;28;20036;-80
2022/09/30 03:32:50;;;;;;;16.92;11.13;;;14.80;82.80;;;;;;5068633;28;20036;-80
2022/09/30 03:35:49;;;;;;;15.93;11.30;;;14.80;82.90;;;;;;5067184;28;20033;-80
2022/09/30 03:38:50;;;;;;;15.13;11.52;;;14.80;83.00;;;;;;5067309;28;20071;-80
2022/09/30 03:41:18;;;;;;;16.33;11.70;;;14.80;82.80;;;;;;4968536;28;20030;-79
2022/09/30 03:43:49;;;;;;;16.08;12.07;;;14.70;82.60;;;;;;4980806;28;20375;-78
2022/09/30 03:46:22;;;;;;;17.58;11.88;;;14.70;82.80;;;;;;4981278;28;20098;-85
2022/09/30 03:48:52;;;;;;;15.68;11.38;;;14.70;82.90;;;;;;4984779;28;20557;-87
2022/09/30 03:51:19;;;;;;;14.70;11.50;;;14.70;83.10;;;;;;4969086;28;20038;-82
2022/09/30 03:53:46;;;;;;;17.83;11.70;;;14.70;83.10;;;;;;4981034;28;20074;-83
2022/09/30 03:56:13;;;;;;;16.05;11.60;;;14.70;83.10;;;;;;4968002;28;20128;-85
2022/09/30 03:58:43;;;;;;;15.38;11.57;;;14.80;83.20;;;;;;4981619;28;20101;-84
2022/09/30 04:01:20;;;;;;;13.63;10.75;;;14.70;83.20;;;;;;4981439;28;20513;-82
2022/09/30 04:03:50;;;;;;;16.33;11.63;;;14.80;83.20;;;;;;4961913;28;20042;-79
2022/09/30 04:06:17;;;;;;;13.90;11.10;;;14.80;83.10;;;;;;4981582;28;20080;-85
2022/09/30 04:08:43;;;;;;;14.20;11.18;;;14.80;83.00;;;;;;4979818;28;20038;-83
2022/09/30 04:11:10;;;;;;;15.30;10.65;;;14.80;83.00;;;;;;4980478;28;20077;-82
2022/09/30 04:13:36;;;;;;;14.90;10.88;;;14.80;83.00;;;;;;4981632;28;20117;-83
2022/09/30 04:16:03;;;;;;;15.95;11.35;;;14.80;83.00;;;;;;4979078;28;20118;-83
2022/09/30 04:18:30;;;;;;;15.02;11.60;;;14.80;83.00;;;;;;5023717;28;20155;-82
2022/09/30 04:20:58;;;;;;;16.15;11.30;;;14.80;83.00;;;;;;5099709;28;20033;-83
2022/09/30 04:23:24;;;;;;;16.58;11.35;;;14.80;83.00;;;;;;5049192;28;20028;-83
2022/09/30 04:25:54;;;;;;;14.35;11.52;;;14.90;83.00;;;;;;5082572;28;20508;-92
2022/09/30 04:28:21;;;;;;;14.95;11.48;;;14.90;83.00;;;;;;5063416;28;20535;-90
2022/09/30 04:30:47;;;;;;;16.48;11.95;;;14.90;83.00;;;;;;5049495;28;20043;-86
2022/09/30 04:33:13;;;;;;;18.48;12.38;;;14.90;82.90;;;;;;5050902;28;20032;-89
2022/09/30 04:35:39;;;;;;;15.90;11.98;;;14.90;82.70;;;;;;5034085;28;20033;-89
2022/09/30 04:38:06;;;;;;;14.10;11.43;;;15.00;82.80;;;;;;5049220;28;21452;-86
2022/09/30 04:40:36;;;;;;;16.58;12.20;;;15.00;82.60;;;;;;5050471;28;20052;-90
2022/09/30 04:43:04;;;;;;;15.55;11.75;;;15.00;82.60;;;;;;5078899;28;20028;-77
2022/09/30 04:45:29;;;;;;;17.17;12.07;;;15.00;82.50;;;;;;5065714;28;20086;-77
2022/09/30 04:47:55;;;;;;;15.63;12.02;;;15.00;82.40;;;;;;5081705;28;20037;-77
2022/09/30 04:50:21;;;;;;;20.42;11.50;;;15.00;82.40;;;;;;5065895;28;20450;-76
2022/09/30 04:52:49;;;;;;;17.85;11.93;;;15.00;82.30;;;;;;5064314;28;20033;-76
2022/09/30 04:55:15;;;;;;;19.23;13.02;;;15.00;82.20;;;;;;5065344;28;20044;-76
2022/09/30 04:57:44;;;;;;;16.42;12.15;;;15.00;82.30;;;;;;5065918;28;20052;-76
2022/09/30 05:00:10;;;;;;;17.15;12.23;;;15.10;82.30;;;;;;5064220;28;20044;-76
2022/09/30 05:02:36;;;;;;;17.35;12.73;;;15.00;82.10;;;;;;5065618;28;20028;-76
2022/09/30 05:05:03;;;;;;;16.50;12.48;;;15.00;82.00;;;;;;5064096;28;20537;-76
2022/09/30 05:07:32;;;;;;;18.70;12.88;;;15.00;82.00;;;;;;5096999;28;20028;-75
2022/09/30 05:09:58;;;;;;;18.58;11.68;;;15.00;82.20;;;;;;5059168;28;20044;-76
2022/09/30 05:12:24;;;;;;;15.52;11.70;;;15.10;82.20;;;;;;5065500;28;20056;-76
2022/09/30 05:14:50;;;;;;;14.32;11.13;;;15.10;82.20;;;;;;5065041;28;20032;-76
2022/09/30 05:17:16;;;;;;;14.63;11.13;;;15.10;82.40;;;;;;5097365;28;20024;-75
2022/09/30 05:19:42;;;;;;;20.42;11.73;;;15.10;82.10;;;;;;5065303;28;20060;-76
2022/09/30 05:22:08;;;;;;;16.23;11.07;;;15.10;82.00;;;;;;5064786;28;20036;-76
2022/09/30 05:24:34;;;;;;;13.10;10.98;;;15.10;82.10;;;;;;5064145;28;20415;-76
2022/09/30 05:27:01;;;;;;;13.70;11.55;;;15.10;82.10;;;;;;5063484;28;20467;-75
2022/09/30 05:29:27;;;;;;;14.20;10.80;;;15.10;81.90;;;;;;5062883;28;20032;-75
2022/09/30 05:31:53;;;;;;;14.05;10.90;;;15.10;81.90;;;;;;5064772;28;20040;-76
2022/09/30 05:34:20;;;;;;;16.67;11.55;;;15.10;82.10;;;;;;5062508;28;20043;-75
2022/09/30 05:36:46;;;;;;;14.88;10.77;;;15.10;82.00;;;;;;5065028;28;20090;-76
2022/09/30 05:39:11;;;;;;;13.63;10.70;;;15.10;82.00;;;;;;5077524;28;20491;-76
2022/09/30 05:41:37;;;;;;;15.52;12.05;;;15.10;82.10;;;;;;5064873;28;20037;-76
2022/09/30 05:44:03;;;;;;;16.40;10.85;;;15.10;82.30;;;;;;5064991;28;20028;-76
2022/09/30 05:46:29;;;;;;;13.13;10.48;;;15.10;82.10;;;;;;5064833;28;20029;-76
2022/09/30 05:48:56;;;;;;;15.90;10.60;;;15.10;82.10;;;;;;5046424;28;20086;-76
2022/09/30 05:51:22;;;;;;;12.98;11.15;;;15.20;82.00;;;;;;5065060;28;20478;-76
2022/09/30 05:53:48;;;;;;;16.58;11.57;;;15.20;81.90;;;;;;5063267;28;20041;-76
2022/09/30 05:56:14;;;;;;;15.82;11.68;;;15.20;81.80;;;;;;5064720;28;20036;-77
2022/09/30 05:58:40;;;;;;;13.75;11.13;;;15.20;81.90;;;;;;5064742;28;20135;-76
2022/09/30 06:01:14;;;;;;;15.95;11.50;;;15.20;81.80;;;;;;5063695;28;20047;-75
2022/09/30 06:03:41;;;;;;;14.93;10.85;;;15.20;81.80;;;;;;5063439;28;20727;-76
2022/09/30 06:06:07;;;;;;;13.90;11.07;;;15.20;81.80;;;;;;5061972;28;20045;-76
2022/09/30 06:08:34;;;;;;;12.85;10.55;;;15.20;81.90;;;;;;5063781;28;20036;-76
2022/09/30 06:10:59;;;;;;;13.70;10.80;;;15.30;81.60;;;;;;5064303;28;20123;-76
2022/09/30 06:13:27;;;;;;;11.50;10.30;;;15.30;81.70;;;;;;5062996;28;20487;-75
2022/09/30 06:16:00;;;;;;;13.18;9.90;;;15.30;81.50;;;;;;5064438;28;20039;-76
2022/09/30 06:18:27;;;;;;;16.83;9.98;;;15.30;81.40;;;;;;5096743;28;21572;-76
2022/09/30 06:20:58;;;;;;;14.25;9.50;;;15.30;81.30;;;;;;5064491;28;20044;-76
2022/09/30 06:23:24;;;;;;;12.57;10.07;;;15.40;81.30;;;;;;5063817;28;20039;-76
2022/09/30 06:25:51;;;;;;;12.43;9.98;;;15.40;81.30;;;;;;5064053;28;20508;-75
2022/09/30 06:28:18;;;;;;;10.57;9.25;;;15.40;81.10;;;;;;5063318;28;20035;-76
2022/09/30 06:30:45;;;;;;;12.85;9.27;;;15.40;81.20;;;;;;5046728;28;20029;-73
2022/09/30 06:33:12;;;;;;;11.68;9.10;;;15.40;81.00;;;;;;5064647;28;20021;-75
2022/09/30 06:35:41;;;;;;;10.02;8.57;;;15.50;81.00;;;;;;5064615;28;20033;-74
2022/09/30 06:38:10;;;;;;;10.80;8.48;;;15.50;80.80;;;;;;5063667;28;20067;-73
2022/09/30 06:40:37;;;;;;;9.20;8.23;;;15.50;81.00;;;;;;5074919;28;20083;-75
2022/09/30 06:43:03;;;;;;;10.07;7.75;;;15.60;80.90;;;;;;5063754;28;20163;-79
2022/09/30 06:45:31;;;;;;;10.73;8.65;;;15.60;80.80;;;;;;5065692;28;20043;-77
2022/09/30 06:47:59;;;;;;;10.65;8.30;;;15.60;80.50;;;;;;5064669;28;20045;-76
2022/09/30 06:50:25;;;;;;;10.07;8.57;;;15.60;80.60;;;;;;5080527;28;20036;-82
2022/09/30 06:52:51;;;;;;;11.20;8.00;;;15.60;80.50;;;;;;5073935;28;20081;-79
2022/09/30 06:55:17;;;;;;;11.85;7.90;;;15.70;80.90;;;;;;5079640;28;20032;-77
2022/09/30 06:57:46;;;;;;;14.52;8.27;;;15.70;80.90;;;;;;5064473;28;20048;-76
2022/09/30 07:00:14;;;;;;;11.18;8.55;;;15.80;80.90;;;;;;5063857;28;20047;-77
2022/09/30 07:02:40;;;;;;;11.90;8.38;;;15.80;80.90;;;;;;5062835;28;20168;-76
2022/09/30 07:05:06;;;;;;;10.70;8.43;;;15.80;80.90;;;;;;5064007;28;20155;-75
2022/09/30 07:07:35;;;;;;;10.07;8.00;;;15.90;81.50;;;;;;5062484;28;20036;-77
2022/09/30 07:10:02;;;;;;;13.63;8.75;;;16.00;81.20;;;;;;5063151;28;20131;-75
2022/09/30 07:12:29;;;;;;;9.60;8.52;;;16.00;80.90;;;;;;5063097;28;20021;-76
2022/09/30 07:14:55;;;;;;;8.65;7.72;;;16.10;80.90;;;;;;5064721;28;20037;-76
2022/09/30 07:17:22;;;;;;;11.10;8.88;;;16.20;81.00;;;;;;5065116;28;20407;-76
2022/09/30 07:19:48;;;;;;;9.63;8.48;;;16.30;80.70;;;;;;5099476;28;20052;-76
2022/09/30 07:22:29;;;;;;;12.77;9.13;;;16.40;80.70;;;;;;5099312;28;20573;-75
2022/09/30 07:24:57;;;;;;;15.45;9.20;;;16.40;80.60;;;;;;5100838;28;20090;-76
2022/09/30 07:27:24;;;;;;;11.10;8.30;;;16.50;80.20;;;;;;5066614;28;20028;-76
2022/09/30 07:29:50;;;;;;;13.27;7.88;;;16.60;80.20;;;;;;5066822;28;20904;-77
2022/09/30 07:32:18;;;;;;;12.32;8.32;;;16.70;80.20;;;;;;5066457;28;20060;-77
2022/09/30 07:34:45;;;;;;;10.07;8.27;;;16.80;80.00;;;;;;5067022;28;20554;-76
2022/09/30 07:37:13;;;;;;;14.18;9.05;;;16.90;80.00;;;;;;5066096;28;20037;-76
2022/09/30 07:39:40;;;;;;;11.55;8.93;;;17.10;79.90;;;;;;5067562;28;21090;-76
2022/09/30 07:42:06;;;;;;;13.77;8.65;;;17.10;79.50;;;;;;5066017;28;20037;-75
2022/09/30 07:44:32;;;;;;;10.52;8.32;;;17.20;79.30;;;;;;5067028;28;20029;-75
2022/09/30 07:47:00;;;;;;;9.63;8.20;;;17.30;79.10;;;;;;5081578;28;20116;-75
2022/09/30 07:49:26;;;;;;;10.77;8.02;;;17.40;79.00;;;;;;5066380;28;20523;-75
2022/09/30 07:51:55;;;;;;;11.40;8.57;;;17.50;78.70;;;;;;5066512;28;20040;-76
2022/09/30 07:54:24;;;;;;;10.05;8.43;;;17.50;78.50;;;;;;5067122;28;20120;-75
2022/09/30 07:56:51;;;;;;;12.23;8.90;;;17.60;78.40;;;;;;5065171;28;20041;-75
2022/09/30 07:59:18;;;;;;;11.13;9.00;;;17.60;78.30;;;;;;5048822;28;20524;-74
2022/09/30 08:01:45;;;;;;;13.73;9.20;;;17.60;78.10;;;;;;5060891;28;20040;-75
2022/09/30 08:04:12;;;;;;;12.25;9.32;;;17.70;77.90;;;;;;5048149;28;20064;-74
2022/09/30 08:06:41;;;;;;;13.00;9.23;;;17.70;77.80;;;;;;5065635;28;20036;-74
2022/09/30 08:09:08;;;;;;;11.63;8.68;;;17.70;77.80;;;;;;5065552;28;20128;-74
2022/09/30 08:11:36;;;;;;;12.85;8.35;;;17.70;77.80;;;;;;5081865;28;20029;-74
2022/09/30 08:14:02;;;;;;;11.75;8.82;;;17.70;77.70;;;;;;5066501;28;20028;-74
2022/09/30 08:16:28;;;;;;;12.68;8.32;;;17.80;77.70;;;;;;5098473;28;20115;-77
2022/09/30 08:18:59;;;;;;;13.57;8.65;;;17.80;77.80;;;;;;5098924;28;20123;-74
2022/09/30 08:21:26;;;;;;;11.60;8.68;;;17.80;77.70;;;;;;5066751;28;20411;-75
2022/09/30 08:23:52;;;;;;;11.88;8.68;;;17.90;77.80;;;;;;5066090;28;20051;-76
2022/09/30 08:26:18;;;;;;;10.38;8.10;;;17.90;78.00;;;;;;5098678;28;20476;-76
2022/09/30 08:28:48;;;;;;;10.65;8.95;;;17.90;78.00;;;;;;5065141;28;20028;-76
2022/09/30 08:31:19;;;;;;;15.45;8.75;;;17.90;77.80;;;;;;5066424;28;20093;-76
2022/09/30 08:33:46;;;;;;;13.32;9.13;;;17.90;77.70;;;;;;5066423;28;20029;-75
2022/09/30 08:36:18;;;;;;;13.02;8.95;;;17.90;78.00;;;;;;5062012;28;20194;-76
2022/09/30 08:38:44;;;;;;;11.63;9.07;;;18.00;78.00;;;;;;5062371;28;20043;-77
2022/09/30 08:41:30;;;;;;;13.40;9.30;;;18.00;78.00;;;;;;5065570;28;20669;-76
2022/09/30 08:44:33;;;;;;;11.15;9.05;;;18.00;78.00;;;;;;5097905;28;20418;-76
2022/09/30 08:47:08;;;;;;;13.98;9.35;;;18.00;78.00;;;;;;5064405;28;20126;-76
2022/09/30 08:50:09;;;;;;;17.70;9.98;;;18.10;78.00;;;;;;5081661;28;20110;-76
2022/09/30 08:52:39;;;;;;;12.73;9.27;;;18.10;78.00;;;;;;5038464;28;20044;-76
2022/09/30 08:55:09;;;;;;;14.15;9.73;;;18.10;77.90;;;;;;5064522;28;20032;-76
2022/09/30 08:57:39;;;;;;;12.52;9.55;;;18.10;78.10;;;;;;5063908;28;20140;-76
2022/09/30 09:00:10;;;;;;;15.35;10.10;;;18.10;78.30;;;;;;5047787;28;20415;-76
2022/09/30 09:02:51;;;;;;;13.77;9.55;;;18.10;78.10;;;;;;5065353;28;20131;-76
2022/09/30 09:05:32;;;;;;;11.88;9.70;;;18.10;78.30;;;;;;5065545;28;20032;-76
2022/09/30 09:08:12;;;;;;;13.15;9.38;;;18.10;78.50;;;;;;5064328;28;20033;-76
2022/09/30 09:10:50;;;;;;;17.42;9.77;;;18.20;78.40;;;;;;5081127;28;20036;-76
2022/09/30 09:13:40;;;;;;;15.90;11.18;;;18.20;78.60;;;;;;5064489;28;20043;-75
2022/09/30 09:16:13;;;;;;;14.73;10.55;;;18.20;78.60;;;;;;5065620;28;20051;-75
2022/09/30 09:18:44;;;;;;;15.73;10.60;;;18.20;78.80;;;;;;5077796;28;20039;-77
2022/09/30 09:21:17;;;;;;;15.07;10.02;;;18.20;78.80;;;;;;5058918;28;20040;-76
2022/09/30 09:23:43;;;;;;;14.10;11.00;;;18.20;78.80;;;;;;5065195;28;20032;-76
2022/09/30 09:26:13;;;;;;;12.30;9.80;;;18.20;78.70;;;;;;5063505;28;20029;-77
2022/09/30 09:28:58;;;;;;;15.45;10.15;;;18.30;78.80;;;;;;5063479;28;20435;-74
2022/09/30 09:31:25;;;;;;;18.02;9.93;;;18.30;78.80;;;;;;5063551;28;20029;-74
2022/09/30 09:33:51;;;;;;;15.45;10.00;;;18.30;78.80;;;;;;5064753;28;20067;-74
2022/09/30 09:36:44;;;;;;;14.98;10.75;;;18.30;78.90;;;;;;5064394;28;20442;-74
2022/09/30 09:39:16;;;;;;;13.50;9.45;;;18.30;79.00;;;;;;5064210;28;20040;-74
2022/09/30 09:41:51;;;;;;;14.75;9.90;;;18.30;79.00;;;;;;5063180;28;20042;-74
2022/09/30 09:44:31;;;;;;;12.98;10.00;;;18.30;79.00;;;;;;5097029;28;20511;-74
2022/09/30 09:47:18;;;;;;;16.75;10.88;;;18.40;79.10;;;;;;5065097;28;20443;-74
2022/09/30 09:49:57;;;;;;;18.15;10.93;;;18.40;79.10;;;;;;5079360;28;20032;-73
2022/09/30 09:52:59;;;;;;;13.93;10.63;;;18.40;79.10;;;;;;5062777;28;20043;-73
2022/09/30 09:55:26;;;;;;;14.15;11.05;;;18.40;79.10;;;;;;5064411;28;20040;-73
2022/09/30 09:58:12;;;;;;;15.32;11.32;;;18.40;79.10;;;;;;5063900;28;20040;-74
2022/09/30 10:03:22;;;;;;;16.80;10.93;;;18.40;79.30;;;;;;5065136;28;20515;-74
2022/09/30 10:06:03;;;;;;;11.95;8.68;;;18.40;79.60;;;;;;5057860;28;20033;-76
2022/09/30 10:08:34;;;;;;;14.50;10.20;;;18.50;79.60;;;;;;5063873;28;20702;-77
2022/09/30 10:11:06;;;;;;;14.57;10.18;;;18.50;80.00;;;;;;5062658;28;20039;-77
2022/09/30 10:13:42;;;;;;;17.40;10.98;;;18.50;79.80;;;;;;5062712;28;20039;-77
2022/09/30 10:16:27;;;;;;;19.92;12.27;;;18.60;80.00;;;;;;5062868;28;20513;-77
2022/09/30 10:18:54;;;;;;;21.05;12.10;;;18.60;79.90;;;;;;5045590;28;20134;-77
2022/09/30 10:21:22;;;;;;;20.20;12.25;;;18.60;79.80;;;;;;5064208;28;20162;-77
2022/09/30 10:23:49;;;;;;;26.23;12.25;;;18.60;80.00;;;;;;5062375;28;20040;-77
2022/09/30 10:26:18;;;;;;;20.67;12.20;;;18.60;80.00;;;;;;5057417;28;20056;-78
2022/09/30 10:28:49;;;;;;;18.02;11.27;;;18.70;80.20;;;;;;5064382;28;20063;-79
2022/09/30 10:31:35;;;;;;;17.33;11.50;;;18.70;80.10;;;;;;5063322;28;20052;-78
2022/09/30 10:34:27;;;;;;;19.77;12.07;;;18.70;80.10;;;;;;5063676;28;20453;-79
2022/09/30 10:36:54;;;;;;;21.00;12.38;;;18.70;80.20;;;;;;5046267;28;20040;-78
2022/09/30 10:39:29;;;;;;;22.35;13.57;;;18.70;80.00;;;;;;5062258;28;20050;-78
2022/09/30 10:42:06;;;;;;;23.13;12.43;;;18.70;80.10;;;;;;5062574;28;20033;-78
2022/09/30 10:44:44;;;;;;;21.70;12.88;;;18.70;80.30;;;;;;5062431;28;20051;-77
2022/09/30 10:47:17;;;;;;;22.77;13.07;;;18.80;80.40;;;;;;5063794;28;20409;-77
2022/09/30 10:49:57;;;;;;;25.25;12.85;;;18.80;80.60;;;;;;5064444;28;20032;-76
2022/09/30 10:52:31;;;;;;;19.23;12.50;;;18.80;80.60;;;;;;5047917;28;20033;-78
2022/09/30 10:54:59;;;;;;;19.15;12.90;;;18.80;80.80;;;;;;5067426;28;20028;-78
2022/09/30 10:57:34;;;;;;;19.10;13.60;;;18.80;80.80;;;;;;5050600;28;20545;-78
2022/09/30 11:00:20;;;;;;;19.33;13.68;;;18.80;80.60;;;;;;5067576;28;20105;-78
2022/09/30 11:02:55;;;;;;;22.75;13.70;;;18.80;80.70;;;;;;5049821;28;20036;-79
2022/09/30 11:05:35;;;;;;;22.55;14.85;;;18.80;80.80;;;;;;5067370;28;20037;-80
2022/09/30 11:08:36;;;;;;;19.08;13.27;;;18.80;80.70;;;;;;5067799;28;20033;-81
2022/09/30 11:11:12;;;;;;;19.52;13.13;;;18.80;81.00;;;;;;5065253;28;20043;-82
2022/09/30 11:13:59;;;;;;;20.33;13.90;;;18.80;81.10;;;;;;5067293;28;20037;-79
2022/09/30 11:16:31;;;;;;;20.45;13.13;;;18.80;81.10;;;;;;5061961;28;20182;-79
2022/09/30 11:19:03;;;;;;;20.48;12.77;;;18.80;81.10;;;;;;5049453;28;20114;-81
2022/09/30 11:21:53;;;;;;;17.67;13.10;;;18.80;81.30;;;;;;5067901;28;20495;-78
2022/09/30 11:24:22;;;;;;;20.75;12.30;;;18.80;81.50;;;;;;5031677;28;20037;-79
2022/09/30 11:27:11;;;;;;;15.68;12.32;;;18.90;81.40;;;;;;5029633;28;20037;-79
2022/09/30 11:29:58;;;;;;;17.13;10.52;;;18.90;81.40;;;;;;5048268;28;20082;-78
2022/09/30 11:32:49;;;;;;;14.93;9.57;;;18.90;81.30;;;;;;5048455;28;20459;-81
2022/09/30 11:35:21;;;;;;;15.73;10.60;;;19.00;81.30;;;;;;5033950;28;20087;-83
2022/09/30 11:38:04;;;;;;;14.68;10.02;;;19.00;81.30;;;;;;5030880;28;20166;-83
2022/09/30 11:40:50;;;;;;;14.85;9.45;;;19.00;81.30;;;;;;5034699;28;20530;-82
2022/09/30 11:43:44;;;;;;;14.90;10.73;;;19.00;81.20;;;;;;5019936;28;20050;-83
2022/09/30 11:46:35;;;;;;;15.15;10.30;;;19.00;81.30;;;;;;5001123;28;20055;-85
2022/09/30 11:49:27;;;;;;;13.05;9.07;;;19.10;81.30;;;;;;5032132;28;20045;-85
2022/09/30 11:52:13;;;;;;;11.88;10.10;;;19.00;81.30;;;;;;5032612;28;20403;-84
2022/09/30 11:55:00;;;;;;;14.82;9.85;;;19.10;81.40;;;;;;5052149;28;20117;-85
2022/09/30 11:58:10;;;;;;;14.55;10.88;;;19.10;81.30;;;;;;5031453;28;20599;-79
2022/09/30 12:00:41;;;;;;;13.45;9.70;;;19.10;81.20;;;;;;5028977;28;20040;-86
2022/09/30 12:03:13;;;;;;;14.15;9.85;;;19.10;81.10;;;;;;5047736;28;20523;-84
2022/09/30 12:05:44;;;;;;;13.32;10.23;;;19.10;81.20;;;;;;5070080;28;20119;-85
2022/09/30 12:08:18;;;;;;;12.40;9.32;;;19.10;80.90;;;;;;5066103;28;20044;-85
2022/09/30 12:10:53;;;;;;;12.93;9.70;;;19.10;81.10;;;;;;5065587;28;20041;-84
2022/09/30 12:13:35;;;;;;;14.43;10.63;;;19.10;81.10;;;;;;5048387;28;20087;-84
2022/09/30 12:16:04;;;;;;;12.75;9.43;;;19.10;81.00;;;;;;5048957;28;20036;-86
2022/09/30 12:18:46;;;;;;;12.95;9.70;;;19.20;80.90;;;;;;5059885;28;20032;-84
2022/09/30 12:21:19;;;;;;;12.95;9.45;;;19.10;80.90;;;;;;5082749;28;20189;-84
2022/09/30 12:24:05;;;;;;;14.05;9.35;;;19.10;80.90;;;;;;5031550;28;20487;-84
2022/09/30 12:26:32;;;;;;;11.80;9.20;;;19.20;81.10;;;;;;5027678;28;20035;-84
2022/09/30 12:33:17;;;;;;;13.68;9.88;;;19.20;80.80;;;;;;5034825;28;20048;-85
2022/09/30 12:35:57;;;;;;;12.77;9.93;;;19.20;80.80;;;;;;5059434;28;21429;-83
2022/09/30 12:38:55;;;;;;;9.85;8.48;;;19.20;80.90;;;;;;5046712;28;20167;-84
2022/09/30 12:41:42;;;;;;;12.38;8.40;;;19.20;80.90;;;;;;5061194;28;20165;-85
2022/09/30 12:44:51;;;;;;;12.38;8.98;;;19.20;80.80;;;;;;5062895;28;20411;-87
2022/09/30 12:47:31;;;;;;;12.55;9.60;;;19.20;80.90;;;;;;5021844;28;20029;-84
2022/09/30 12:49:58;;;;;;;12.95;8.25;;;19.20;81.10;;;;;;5033047;28;20456;-83
2022/09/30 12:52:30;;;;;;;12.55;9.52;;;19.20;81.10;;;;;;5019610;28;20098;-81
2022/09/30 12:55:01;;;;;;;11.82;9.20;;;19.20;80.90;;;;;;5007642;28;20033;-82
2022/09/30 12:57:32;;;;;;;12.63;9.35;;;19.20;80.90;;;;;;5019596;28;20060;-82
2022/09/30 13:00:12;;;;;;;15.98;9.90;;;19.20;80.90;;;;;;5020541;28;20041;-82
2022/09/30 13:02:41;;;;;;;11.93;9.02;;;19.20;81.00;;;;;;5000585;28;20061;-82
2022/09/30 13:05:26;;;;;;;13.48;10.05;;;19.20;81.10;;;;;;5032098;28;20095;-80
2022/09/30 13:08:04;;;;;;;12.15;9.65;;;19.20;81.20;;;;;;5016683;28;20045;-81
2022/09/30 13:10:32;;;;;;;13.02;9.90;;;19.20;81.20;;;;;;5032987;28;20163;-80